Time;durP1;ratioP1;P1;durP2;ratioP2;P2;SDS_P1;SDS_P2;PMS_P1;PMS_P2;Temp;Humidity;BMP_temperature;BMP_pressure;BME280_temperature;BME280_humidity;BME280_pressure;Samples;Min_cycle;Max_cycle;Signal;HPM_P1;HPM_P2
2022/06/25 07:07:02;;;;;;;7.90;1.35;;;23.60;56.20;;;;;;7409585;19;20106;-89
2022/06/25 07:09:31;;;;;;;5.30;1.57;;;23.60;56.00;;;;;;7246495;19;3145299;-88
2022/06/25 07:12:00;;;;;;;7.40;1.30;;;23.60;56.10;;;;;;7414829;19;20040;-88
2022/06/25 07:14:29;;;;;;;4.30;1.25;;;23.70;56.10;;;;;;7418968;19;20021;-88
2022/06/25 07:16:58;;;;;;;3.40;1.20;;;23.70;55.80;;;;;;7415059;19;20024;-88
2022/06/25 07:19:27;;;;;;;4.28;1.40;;;23.70;55.90;;;;;;7430402;19;20019;-87
2022/06/25 07:21:57;;;;;;;4.55;1.10;;;23.70;56.00;;;;;;7410422;19;20006;-89
2022/06/25 07:24:29;;;;;;;6.45;1.27;;;23.70;55.70;;;;;;7411110;19;20010;-86
2022/06/25 07:26:58;;;;;;;7.00;1.27;;;23.80;56.00;;;;;;7406390;19;20087;-87
2022/06/25 07:29:27;;;;;;;6.75;1.40;;;23.90;56.00;;;;;;7409319;19;20030;-86
2022/06/25 07:37:32;;;;;;;5.53;1.23;;;23.90;55.40;;;;;;7403559;19;20105;-81
2022/06/25 07:40:04;;;;;;;8.07;1.40;;;23.90;54.90;;;;;;7426264;19;20053;-81
2022/06/25 07:42:33;;;;;;;3.55;1.10;;;24.00;55.20;;;;;;7404871;19;20010;-81
2022/06/25 07:45:03;;;;;;;3.10;1.10;;;24.10;55.10;;;;;;7405954;19;20041;-80
2022/06/25 07:47:38;;;;;;;4.22;1.10;;;24.10;54.10;;;;;;7407632;19;20018;-80
2022/06/25 07:52:51;;;;;;;3.97;1.40;;;24.00;53.80;;;;;;7408230;19;21871;-82
2022/06/25 07:55:22;;;;;;;6.97;1.30;;;24.00;53.40;;;;;;7424297;19;20538;-81
2022/06/25 07:57:51;;;;;;;12.18;1.50;;;24.00;53.20;;;;;;7404889;19;20042;-78
2022/06/25 08:00:20;;;;;;;6.90;1.40;;;23.90;52.50;;;;;;7405026;19;20014;-78
2022/06/25 08:02:49;;;;;;;3.47;1.40;;;23.60;53.00;;;;;;7405038;19;20434;-77
2022/06/25 08:05:29;;;;;;;7.07;1.20;;;23.70;53.40;;;;;;7408091;19;20086;-84
2022/06/25 08:07:57;;;;;;;122.45;77.20;;;23.70;53.70;;;;;;7413733;19;20014;-78
2022/06/25 08:10:29;;;;;;;27.17;16.98;;;23.70;52.70;;;;;;7444786;19;20027;-79
2022/06/25 08:12:58;;;;;;;6.93;2.03;;;23.80;52.90;;;;;;7426263;19;20014;-81
2022/06/25 08:15:27;;;;;;;19.88;8.07;;;23.90;52.00;;;;;;7386485;19;20031;-81
2022/06/25 08:17:55;;;;;;;4.63;1.80;;;23.90;51.60;;;;;;7382127;19;20019;-79
2022/06/25 08:20:24;;;;;;;8.82;4.00;;;23.90;51.50;;;;;;7376223;19;20014;-80
2022/06/25 08:22:53;;;;;;;10.95;2.58;;;24.00;51.50;;;;;;7376415;19;20074;-80
2022/06/25 08:25:22;;;;;;;8.15;2.00;;;24.10;51.20;;;;;;7399537;19;20043;-80
2022/06/25 08:27:55;;;;;;;7.25;1.55;;;24.10;51.00;;;;;;7376044;19;20036;-80
2022/06/25 08:30:26;;;;;;;8.40;2.05;;;24.10;51.10;;;;;;7376676;19;20026;-80
2022/06/25 08:32:55;;;;;;;6.63;2.25;;;24.00;51.60;;;;;;7376406;19;20556;-80
2022/06/25 08:35:25;;;;;;;4.60;1.40;;;24.10;52.20;;;;;;7375302;19;20018;-81
2022/06/25 08:37:53;;;;;;;7.45;1.77;;;24.10;53.00;;;;;;7377175;19;20015;-81
2022/06/25 08:40:23;;;;;;;4.13;1.60;;;24.10;52.90;;;;;;7396411;19;20341;-81
2022/06/25 08:42:55;;;;;;;6.10;1.45;;;24.00;52.50;;;;;;7376286;19;20043;-80
2022/06/25 08:48:45;;;;;;;7.13;1.70;;;23.80;53.10;;;;;;7318218;19;20451;-82
2022/06/25 09:05:34;;;;;;;7.22;1.75;;;23.70;54.20;;;;;;7381152;19;20035;-82
2022/06/25 09:08:32;;;;;;;7.63;1.73;;;23.70;53.80;;;;;;7405543;19;20015;-89
2022/06/25 09:11:02;;;;;;;8.90;1.80;;;23.80;54.70;;;;;;7381918;19;20010;-83
2022/06/25 09:14:42;;;;;;;11.50;2.17;;;23.80;55.00;;;;;;7399345;19;20014;-84
2022/06/25 09:17:34;;;;;;;5.20;1.55;;;23.90;55.20;;;;;;7277928;19;2003514;-84
2022/06/25 09:20:07;;;;;;;12.23;1.88;;;24.00;54.50;;;;;;7342645;19;20106;-83
2022/06/25 09:27:01;;;;;;;13.38;2.00;;;24.10;53.40;;;;;;7274322;19;2004464;-84
2022/06/25 09:33:06;;;;;;;8.27;1.60;;;24.30;52.90;;;;;;7380964;19;20485;-84
2022/06/25 09:36:03;;;;;;;5.18;1.52;;;24.40;52.00;;;;;;7333350;19;20015;-84
2022/06/25 09:38:33;;;;;;;6.50;1.80;;;24.40;53.10;;;;;;7334008;19;20418;-81
2022/06/25 09:41:03;;;;;;;56.35;34.25;;;24.50;52.50;;;;;;7374498;19;20457;-79
2022/06/25 09:43:41;;;;;;;43.38;25.90;;;24.50;52.20;;;;;;7372980;19;20019;-81
2022/06/25 09:46:10;;;;;;;11.20;3.47;;;24.40;52.00;;;;;;7394638;19;20007;-80
2022/06/25 09:48:39;;;;;;;7.97;3.55;;;24.30;51.50;;;;;;7375648;19;20003;-82
2022/06/25 09:51:23;;;;;;;8.93;2.08;;;24.40;51.50;;;;;;7373377;19;20493;-84
2022/06/25 09:57:51;;;;;;;6.53;1.50;;;24.20;51.80;;;;;;7373528;19;20011;-83
2022/06/25 10:00:25;;;;;;;6.63;1.63;;;24.30;51.80;;;;;;7376068;19;20018;-82
2022/06/25 10:02:55;;;;;;;4.22;1.50;;;24.30;51.80;;;;;;7374809;19;20032;-79
2022/06/25 10:05:30;;;;;;;10.95;1.40;;;24.30;51.80;;;;;;7373399;19;20113;-81
2022/06/25 10:08:07;;;;;;;4.20;1.50;;;24.30;52.10;;;;;;7376343;19;20015;-80
2022/06/25 12:10:36;;;;;;;5.25;1.58;;;24.40;57.60;;;;;;7269261;19;20015;-85
2022/06/25 13:08:41;;;;;;;5.75;1.48;;;23.50;56.50;;;;;;7255114;19;2004303;-85
2022/06/25 13:15:10;;;;;;;3.75;1.60;;;23.30;57.00;;;;;;7379885;19;20087;-86
2022/06/25 13:17:40;;;;;;;5.03;1.70;;;23.20;58.10;;;;;;7377138;19;20022;-82
2022/06/25 13:20:10;;;;;;;4.25;1.50;;;23.30;57.70;;;;;;7373896;19;20010;-81
2022/06/25 13:22:40;;;;;;;34.33;21.10;;;23.30;57.70;;;;;;7374793;19;20018;-83
2022/06/25 17:38:00;;;;;;;2.50;1.10;;;23.40;52.20;;;;;;7383597;19;20039;-82
2022/06/25 17:40:33;;;;;;;1.52;1.02;;;23.40;51.20;;;;;;7407097;19;20023;-83
2022/06/25 17:43:03;;;;;;;1.92;1.10;;;23.40;50.80;;;;;;7388289;19;20007;-80
2022/06/25 17:45:32;;;;;;;3.78;0.93;;;23.40;50.90;;;;;;7380603;19;20059;-78
2022/06/25 17:48:01;;;;;;;3.60;1.05;;;23.40;50.40;;;;;;7379531;19;20030;-78
2022/06/25 17:50:30;;;;;;;1.27;1.05;;;23.40;50.90;;;;;;7375320;19;20023;-79
2022/06/25 17:53:02;;;;;;;2.15;1.10;;;23.40;51.10;;;;;;7376845;19;20535;-79
2022/06/25 17:55:31;;;;;;;0.75;0.75;;;23.40;50.90;;;;;;7389637;19;20461;-79
2022/06/25 17:57:59;;;;;;;1.48;1.00;;;23.40;50.70;;;;;;7392309;19;20118;-80
2022/06/25 18:00:30;;;;;;;1.38;0.88;;;23.30;50.60;;;;;;7372661;19;20589;-79
2022/06/25 18:02:59;;;;;;;2.80;1.20;;;23.20;51.10;;;;;;7377435;19;20024;-87
2022/06/25 18:05:28;;;;;;;3.20;1.10;;;23.20;51.70;;;;;;7378154;19;20014;-83
2022/06/25 18:07:57;;;;;;;1.58;1.08;;;23.20;51.40;;;;;;7373530;19;20019;-80
2022/06/25 18:10:29;;;;;;;2.13;1.00;;;23.10;51.10;;;;;;7397613;19;20107;-79
2022/06/25 18:12:58;;;;;;;1.80;0.93;;;23.10;51.60;;;;;;7376356;19;20051;-85
2022/06/25 18:15:27;;;;;;;5.13;1.13;;;22.90;51.20;;;;;;7374360;19;20018;-86
2022/06/25 18:17:55;;;;;;;2.55;1.30;;;22.80;51.50;;;;;;7374971;19;20082;-81
2022/06/25 18:20:24;;;;;;;3.13;1.75;;;22.80;52.20;;;;;;7374461;19;20028;-84
2022/06/25 18:22:53;;;;;;;2.50;1.65;;;22.80;51.90;;;;;;7372984;19;20022;-81
2022/06/25 18:25:22;;;;;;;260.02;180.43;;;22.70;51.90;;;;;;7394739;19;20019;-82
2022/06/25 18:27:54;;;;;;;3.15;2.30;;;22.70;52.20;;;;;;7372514;19;20446;-80
2022/06/25 18:30:23;;;;;;;2.33;1.50;;;22.70;52.30;;;;;;7372993;19;20016;-81
2022/06/25 18:32:52;;;;;;;2.25;1.75;;;23.00;53.00;;;;;;7372916;19;20014;-80
2022/06/25 18:35:21;;;;;;;3.33;1.60;;;23.80;51.70;;;;;;7371265;19;20087;-81
2022/06/25 18:37:50;;;;;;;3.83;1.20;;;24.50;48.90;;;;;;7374181;19;20482;-81
2022/06/25 18:40:18;;;;;;;7.85;4.13;;;24.80;47.80;;;;;;7395816;19;20015;-81
2022/06/25 18:42:48;;;;;;;4.05;1.77;;;24.70;47.60;;;;;;7373556;19;20035;-81
2022/06/25 18:45:20;;;;;;;1.88;1.25;;;24.50;48.20;;;;;;7372103;19;20015;-80
2022/06/25 18:47:48;;;;;;;2.28;0.80;;;24.30;48.70;;;;;;7370351;19;20044;-82
2022/06/25 18:50:17;;;;;;;3.85;1.20;;;24.20;48.70;;;;;;7372227;19;20006;-80
2022/06/25 18:52:46;;;;;;;2.35;1.10;;;24.00;48.80;;;;;;7371825;19;20082;-81
2022/06/25 18:55:15;;;;;;;1.20;0.85;;;24.00;49.20;;;;;;7395519;19;20022;-80
2022/06/25 18:57:44;;;;;;;3.17;1.27;;;24.30;49.00;;;;;;7372686;19;20014;-81
2022/06/25 19:00:14;;;;;;;1.70;0.90;;;24.70;48.60;;;;;;7372467;19;20090;-81
2022/06/25 19:02:45;;;;;;;1.50;0.90;;;25.50;46.10;;;;;;7372467;19;20014;-81
2022/06/25 19:05:14;;;;;;;2.17;0.90;;;26.30;45.40;;;;;;7372362;19;20010;-80
2022/06/25 19:07:43;;;;;;;4.88;1.30;;;26.60;44.30;;;;;;7371527;19;20014;-80
2022/06/25 19:10:12;;;;;;;3.63;1.20;;;26.50;44.30;;;;;;7393211;19;20022;-80
2022/06/25 19:12:41;;;;;;;2.75;1.23;;;26.40;44.00;;;;;;7370660;19;20029;-80
2022/06/25 19:15:11;;;;;;;3.97;1.30;;;26.00;44.70;;;;;;7370595;19;20027;-80
2022/06/25 19:17:40;;;;;;;2.90;1.50;;;25.60;45.40;;;;;;7371434;19;20019;-80
2022/06/25 19:20:12;;;;;;;2.13;1.15;;;25.20;46.00;;;;;;7372571;19;20062;-80
2022/06/25 19:22:41;;;;;;;3.20;1.30;;;24.70;46.80;;;;;;7372240;19;21224;-80
2022/06/25 19:25:11;;;;;;;3.95;1.27;;;24.40;48.00;;;;;;7391692;19;20037;-80
2022/06/25 19:27:41;;;;;;;3.47;1.02;;;24.10;48.60;;;;;;7370888;19;20014;-79
2022/06/25 19:30:12;;;;;;;5.28;1.35;;;23.80;49.10;;;;;;7370561;19;20741;-79
2022/06/25 19:32:41;;;;;;;2.60;1.05;;;23.60;49.70;;;;;;7370724;19;20015;-79
2022/06/25 19:35:14;;;;;;;2.92;1.40;;;23.40;50.30;;;;;;7370289;19;20011;-81
2022/06/25 19:37:43;;;;;;;4.97;1.73;;;23.20;50.80;;;;;;7369164;19;20010;-80
2022/06/25 19:40:12;;;;;;;4.07;2.72;;;23.10;51.10;;;;;;7396639;19;20011;-80
2022/06/25 19:42:41;;;;;;;4.13;2.15;;;23.00;51.50;;;;;;7371167;19;20010;-80
2022/06/25 19:45:11;;;;;;;14.10;6.85;;;22.90;51.90;;;;;;7370787;19;20024;-80
2022/06/25 19:47:40;;;;;;;7.65;4.35;;;22.80;52.40;;;;;;7372085;19;20117;-80
2022/06/25 19:50:13;;;;;;;4.78;1.80;;;22.70;52.60;;;;;;7369028;19;20014;-81
2022/06/25 19:52:41;;;;;;;5.72;1.58;;;22.60;53.10;;;;;;7369305;19;20384;-79
2022/06/25 19:55:11;;;;;;;3.58;1.33;;;22.50;53.60;;;;;;7389702;19;20019;-79
2022/06/25 19:57:40;;;;;;;4.43;1.60;;;22.40;54.00;;;;;;7369506;19;20026;-80
2022/06/25 20:00:11;;;;;;;2.65;1.35;;;22.30;54.10;;;;;;7369690;19;20014;-80
2022/06/25 20:02:40;;;;;;;3.37;1.40;;;22.30;54.40;;;;;;7369274;19;20073;-79
2022/06/25 20:05:13;;;;;;;7.57;2.03;;;22.20;54.50;;;;;;7367840;19;20021;-80
2022/06/25 20:07:44;;;;;;;2.60;1.30;;;22.20;54.80;;;;;;7366480;19;20430;-79
2022/06/25 20:10:13;;;;;;;2.47;1.30;;;22.10;54.80;;;;;;7389169;19;20454;-79
2022/06/25 20:12:42;;;;;;;3.95;1.50;;;22.10;55.10;;;;;;7375935;19;20011;-80
2022/06/25 20:15:12;;;;;;;4.65;1.63;;;22.10;55.20;;;;;;7378914;19;20013;-80
2022/06/25 20:17:41;;;;;;;3.90;1.20;;;22.00;55.50;;;;;;7378267;19;20014;-80
2022/06/25 20:20:13;;;;;;;5.03;1.40;;;22.00;55.90;;;;;;7397960;19;20027;-90
2022/06/25 20:22:44;;;;;;;5.65;1.35;;;22.00;56.00;;;;;;7403158;19;20102;-88
2022/06/25 20:25:14;;;;;;;3.20;1.47;;;22.00;55.80;;;;;;7432789;19;20035;-89
2022/06/25 20:27:44;;;;;;;36.33;27.13;;;22.00;56.10;;;;;;7409083;19;20031;-86
2022/06/25 20:30:13;;;;;;;309.25;240.15;;;22.00;56.10;;;;;;7395001;19;20014;-88
2022/06/25 20:32:42;;;;;;;9.25;4.78;;;22.00;56.50;;;;;;7394871;19;20011;-81
2022/06/25 20:35:13;;;;;;;5.47;1.95;;;22.00;56.40;;;;;;7406452;19;20047;-90
2022/06/25 20:37:43;;;;;;;3.05;1.60;;;22.00;56.40;;;;;;7406006;19;20010;-82
2022/06/25 20:40:15;;;;;;;6.82;1.60;;;21.90;56.30;;;;;;7415255;19;20436;-82
2022/06/25 20:42:44;;;;;;;5.45;1.48;;;21.90;56.60;;;;;;7384507;19;20019;-83
2022/06/25 20:45:14;;;;;;;3.10;1.40;;;21.90;56.60;;;;;;7382204;19;20042;-82
2022/06/25 20:47:42;;;;;;;7.05;1.50;;;21.90;56.70;;;;;;7381695;19;20018;-83
2022/06/25 20:50:14;;;;;;;2.22;1.95;;;22.00;57.00;;;;;;7379251;19;20097;-82
2022/06/25 20:52:44;;;;;;;5.45;1.77;;;21.90;56.80;;;;;;7377938;19;20022;-82
2022/06/25 20:55:13;;;;;;;3.83;1.58;;;21.90;56.80;;;;;;7399981;19;20023;-83
2022/06/25 20:57:43;;;;;;;4.82;1.60;;;21.80;56.90;;;;;;7378542;19;20010;-83
2022/06/25 21:00:14;;;;;;;3.40;1.58;;;21.80;57.20;;;;;;7383284;19;20537;-83
2022/06/25 21:08:10;;;;;;;5.32;1.65;;;21.70;57.30;;;;;;7380559;19;20438;-82
2022/06/25 21:10:43;;;;;;;3.17;2.00;;;21.60;57.50;;;;;;7377769;19;20022;-83
2022/06/25 21:13:13;;;;;;;8.88;2.40;;;21.60;57.60;;;;;;7402858;19;20490;-84
2022/06/25 21:15:42;;;;;;;4.85;1.63;;;21.60;57.80;;;;;;7378849;19;20007;-83
2022/06/25 21:18:11;;;;;;;2.90;1.70;;;21.50;57.90;;;;;;7381739;19;20102;-83
2022/06/25 21:20:42;;;;;;;7.15;1.70;;;21.50;57.80;;;;;;7379560;19;20458;-83
2022/06/25 21:23:12;;;;;;;7.75;1.42;;;21.50;57.90;;;;;;7379938;19;20014;-83
2022/06/25 21:25:42;;;;;;;3.47;1.88;;;21.50;57.90;;;;;;7379101;19;20029;-83
2022/06/25 21:28:11;;;;;;;6.55;1.63;;;21.50;58.00;;;;;;7396608;19;20014;-83
2022/06/25 21:30:39;;;;;;;4.15;1.20;;;21.50;57.80;;;;;;7377021;19;20085;-83
2022/06/25 21:33:08;;;;;;;5.45;2.05;;;21.40;58.00;;;;;;7376953;19;20014;-83
2022/06/25 21:35:37;;;;;;;7.78;1.85;;;21.40;58.10;;;;;;7375458;19;20142;-82
2022/06/25 21:38:09;;;;;;;5.93;1.60;;;21.40;58.20;;;;;;7378495;19;20446;-82
2022/06/25 21:40:37;;;;;;;7.85;1.67;;;21.40;58.40;;;;;;7375038;19;20379;-83
2022/06/25 21:43:06;;;;;;;9.93;1.80;;;21.40;58.40;;;;;;7398414;19;20464;-82
2022/06/25 21:45:35;;;;;;;3.15;1.60;;;21.30;58.20;;;;;;7376938;19;20039;-83
2022/06/25 21:48:04;;;;;;;5.45;1.75;;;21.30;58.40;;;;;;7376651;19;20467;-84
2022/06/25 21:50:33;;;;;;;6.55;1.70;;;21.30;58.60;;;;;;7376789;19;20056;-83
2022/06/25 21:53:03;;;;;;;3.47;1.83;;;21.30;58.50;;;;;;7375277;19;20438;-83
2022/06/25 21:55:34;;;;;;;2.78;1.75;;;21.30;58.50;;;;;;7382252;19;20118;-83
2022/06/25 21:58:03;;;;;;;4.30;1.50;;;21.30;58.60;;;;;;7397222;19;20501;-83
2022/06/25 22:00:32;;;;;;;3.95;1.98;;;21.30;58.60;;;;;;7377352;19;20011;-83
2022/06/25 22:03:02;;;;;;;8.98;2.80;;;21.30;58.60;;;;;;7379025;19;20074;-83
2022/06/25 22:05:31;;;;;;;4.97;2.63;;;21.30;58.80;;;;;;7374094;19;20461;-83
2022/06/25 22:07:59;;;;;;;4.72;2.53;;;21.30;58.70;;;;;;7375143;19;20024;-83
2022/06/25 22:10:29;;;;;;;6.13;2.33;;;21.30;58.80;;;;;;7399235;19;20019;-83
2022/06/25 22:13:00;;;;;;;5.70;2.50;;;21.30;58.70;;;;;;7378906;19;20014;-83
2022/06/25 22:15:29;;;;;;;5.68;2.30;;;21.20;59.60;;;;;;7380709;19;20097;-84
2022/06/25 22:17:58;;;;;;;4.60;2.05;;;21.20;58.90;;;;;;7377276;19;20031;-83
2022/06/25 22:23:24;;;;;;;6.50;2.15;;;21.10;59.70;;;;;;7373552;19;20006;-83
2022/06/25 22:25:55;;;;;;;7.70;1.67;;;21.10;59.30;;;;;;7372557;19;20022;-82
2022/06/25 22:28:26;;;;;;;12.50;1.70;;;21.00;59.30;;;;;;7418997;19;20010;-83
2022/06/25 22:30:56;;;;;;;9.57;2.05;;;21.00;59.30;;;;;;7401978;19;20018;-82
2022/06/25 22:33:29;;;;;;;5.93;2.03;;;21.00;59.30;;;;;;7382785;19;20602;-83
2022/06/25 22:35:57;;;;;;;5.18;1.48;;;21.00;59.40;;;;;;7379459;19;20011;-83
2022/06/25 22:38:26;;;;;;;10.25;1.50;;;21.00;59.30;;;;;;7385801;19;20094;-83
2022/06/25 22:40:55;;;;;;;5.57;1.98;;;21.00;59.30;;;;;;7380476;19;20136;-83
2022/06/25 22:43:26;;;;;;;4.47;1.80;;;21.00;59.50;;;;;;7395273;19;20019;-83
2022/06/25 22:45:55;;;;;;;;;;;20.90;59.50;;;;;;7373113;19;20019;-82
2022/06/25 22:48:24;;;;;;;8.95;1.60;;;21.00;59.40;;;;;;7371800;19;19919;-82
2022/06/25 22:50:53;;;;;;;4.25;1.52;;;21.00;59.30;;;;;;7371817;19;20082;-82
2022/06/25 22:53:22;;;;;;;6.30;1.80;;;21.00;59.40;;;;;;7373200;19;20006;-82
2022/06/25 22:55:51;;;;;;;3.88;1.70;;;21.00;59.30;;;;;;7373601;19;20018;-85
2022/06/25 22:58:19;;;;;;;7.05;1.75;;;20.90;59.30;;;;;;7411942;19;20015;-86
2022/06/25 23:00:51;;;;;;;3.58;1.60;;;20.90;59.20;;;;;;7386332;19;20056;-86
2022/06/25 23:03:20;;;;;;;3.90;1.92;;;20.90;59.30;;;;;;7385675;19;20035;-87
2022/06/25 23:05:48;;;;;;;5.60;1.60;;;20.90;60.00;;;;;;7391332;19;20031;-86
2022/06/25 23:08:17;;;;;;;9.77;1.80;;;20.90;59.40;;;;;;7402027;19;20018;-85
2022/06/25 23:10:46;;;;;;;2.38;1.52;;;20.80;59.30;;;;;;7402704;19;20010;-87
2022/06/25 23:13:14;;;;;;;3.50;1.90;;;20.80;59.30;;;;;;7405631;19;20070;-87
2022/06/25 23:15:43;;;;;;;2.50;1.70;;;20.80;59.40;;;;;;7380562;19;20095;-87
2022/06/25 23:18:15;;;;;;;4.55;1.90;;;20.80;59.50;;;;;;7380807;19;20027;-86
2022/06/25 23:20:43;;;;;;;;;;;20.70;59.70;;;;;;7379753;19;20015;-86
2022/06/25 23:23:12;;;;;;;7.72;1.65;;;20.80;59.90;;;;;;7377972;19;19914;-86
2022/06/25 23:25:42;;;;;;;8.02;1.65;;;20.70;59.70;;;;;;7379124;19;20450;-86
2022/06/25 23:28:11;;;;;;;4.18;1.67;;;20.70;59.70;;;;;;7410224;19;20018;-87
2022/06/25 23:30:40;;;;;;;9.18;1.75;;;20.70;60.60;;;;;;7386968;19;20023;-86
2022/06/25 23:33:09;;;;;;;4.47;1.70;;;20.60;60.20;;;;;;7375028;19;20015;-86
2022/06/25 23:35:40;;;;;;;5.93;1.50;;;20.60;60.20;;;;;;7374184;19;20099;-86
2022/06/25 23:38:09;;;;;;;;;;;20.60;60.00;;;;;;7373771;19;20018;-86
2022/06/25 23:40:38;;;;;;;13.55;1.98;;;20.70;60.10;;;;;;7372979;19;19918;-86
2022/06/25 23:43:06;;;;;;;4.75;1.67;;;20.60;59.90;;;;;;7392024;19;20014;-86
2022/06/25 23:45:35;;;;;;;7.97;1.48;;;20.60;60.00;;;;;;7374325;19;20029;-87
2022/06/25 23:48:04;;;;;;;3.58;1.60;;;20.60;60.20;;;;;;7379391;19;20104;-87
2022/06/25 23:50:33;;;;;;;6.78;1.67;;;20.60;60.30;;;;;;7381179;19;20765;-87
2022/06/25 23:53:04;;;;;;;3.33;1.48;;;20.60;60.40;;;;;;7384687;19;20437;-87
2022/06/25 23:55:33;;;;;;;5.60;2.00;;;20.60;60.30;;;;;;7387184;19;20082;-86
2022/06/25 23:58:02;;;;;;;3.58;1.90;;;20.60;60.20;;;;;;7401254;19;20019;-87
